createdAt,value
2022-11-27T00:02:24.478Z,96083.53
2022-11-27T00:04:51.304Z,96087.72
2022-11-27T00:07:18.168Z,96084.19
2022-11-27T00:09:44.969Z,96091.47
2022-11-27T00:12:11.946Z,96093.31
2022-11-27T00:14:38.621Z,96104.22
2022-11-27T00:17:05.378Z,96093.06
2022-11-27T00:19:33.412Z,96090.31
2022-11-27T00:22:00.362Z,96087.53
2022-11-27T00:24:27.231Z,96092.16
2022-11-27T00:26:54.102Z,96094.34
2022-11-27T00:29:22.153Z,96095.16
2022-11-27T00:31:49.172Z,96097.03
2022-11-27T00:34:15.949Z,96104.03
2022-11-27T00:36:46.634Z,96105.19
2022-11-27T00:39:15.132Z,96115.00
2022-11-27T00:41:41.803Z,96107.84
2022-11-27T00:44:08.524Z,96112.28
2022-11-27T00:46:35.922Z,96099.53
2022-11-27T00:49:06.097Z,96108.03
2022-11-27T00:51:33.164Z,96108.09
2022-11-27T00:54:00.284Z,96101.63
2022-11-27T00:56:33.489Z,96107.78
2022-11-27T00:59:01.223Z,96110.91
2022-11-27T01:01:38.767Z,96112.63
2022-11-27T01:04:08.878Z,96110.66
2022-11-27T01:06:35.599Z,96106.38
2022-11-27T01:09:03.619Z,96105.03
2022-11-27T01:11:32.166Z,96104.63
2022-11-27T01:14:01.676Z,96101.22
2022-11-27T01:16:30.051Z,96089.56
2022-11-27T01:18:59.157Z,96081.13
2022-11-27T01:21:28.572Z,96083.28
2022-11-27T01:23:55.731Z,96093.56
2022-11-27T01:26:23.138Z,96084.50
2022-11-27T01:28:54.808Z,96084.50
2022-11-27T01:31:28.008Z,96076.13
2022-11-27T01:33:58.234Z,96078.59
2022-11-27T01:36:26.034Z,96084.81
2022-11-27T01:38:52.982Z,96085.81
2022-11-27T01:41:41.488Z,96081.72
2022-11-27T01:44:26.173Z,96082.34
2022-11-27T01:47:05.849Z,96074.94
2022-11-27T01:49:37.983Z,96079.53
2022-11-27T01:52:12.194Z,96068.56
2022-11-27T01:54:39.391Z,96076.13
2022-11-27T01:57:13.413Z,96057.09
2022-11-27T01:59:41.349Z,96070.09
2022-11-27T02:02:08.355Z,96076.78
2022-11-27T02:04:35.376Z,96066.88
2022-11-27T02:07:02.271Z,96073.78
2022-11-27T02:09:29.992Z,96073.72
2022-11-27T02:12:27.254Z,96074.38
2022-11-27T02:15:13.280Z,96072.53
2022-11-27T02:18:03.498Z,96068.94
2022-11-27T02:20:43.236Z,96076.53
2022-11-27T02:23:47.689Z,96069.75
2022-11-27T02:26:41.806Z,96077.19
2022-11-27T02:29:13.722Z,96075.00
2022-11-27T02:31:46.495Z,96078.88
2022-11-27T02:34:37.092Z,96083.59
2022-11-27T02:37:24.218Z,96088.56
2022-11-27T02:40:28.453Z,96083.09
2022-11-27T02:43:09.280Z,96086.63
2022-11-27T02:45:43.340Z,96077.50
2022-11-27T02:48:13.586Z,96077.28
2022-11-27T02:50:44.294Z,96078.63
2022-11-27T02:53:19.173Z,96084.66
2022-11-27T02:55:48.893Z,96078.25
2022-11-27T02:58:19.823Z,96071.03
2022-11-27T03:00:47.745Z,96082.03
2022-11-27T03:03:18.750Z,96077.03
2022-11-27T03:05:49.613Z,96077.75
2022-11-27T03:08:32.516Z,96078.47
2022-11-27T03:11:06.305Z,96086.00
2022-11-27T03:13:38.470Z,96084.44
2022-11-27T03:16:12.265Z,96085.81
2022-11-27T03:18:54.274Z,96085.81
2022-11-27T03:21:42.380Z,96084.25
2022-11-27T03:24:10.278Z,96089.31
2022-11-27T03:26:38.256Z,96095.41
2022-11-27T03:29:09.892Z,96090.66
2022-11-27T03:31:38.053Z,96098.88
2022-11-27T03:34:05.406Z,96093.75
2022-11-27T03:36:32.254Z,96079.34
2022-11-27T03:38:58.984Z,96083.16
2022-11-27T03:41:41.088Z,96080.56
2022-11-27T03:44:41.180Z,96087.38
2022-11-27T03:47:27.113Z,96081.84
2022-11-27T03:50:14.643Z,96087.03
2022-11-27T03:52:59.529Z,96083.91
2022-11-27T03:55:49.629Z,96081.19
2022-11-27T03:58:28.861Z,96079.84
2022-11-27T04:00:59.151Z,96084.19
2022-11-27T04:03:30.348Z,96092.47
2022-11-27T04:05:57.633Z,96082.13
2022-11-27T04:08:24.901Z,96062.00
2022-11-27T04:10:51.754Z,96078.47
2022-11-27T04:13:18.505Z,96083.06
2022-11-27T04:15:45.376Z,96063.75
2022-11-27T04:18:12.536Z,96070.38
2022-11-27T04:20:39.433Z,96071.81
2022-11-27T04:23:06.190Z,96071.44
2022-11-27T04:25:33.176Z,96067.47
2022-11-27T04:27:59.919Z,96078.06
2022-11-27T04:30:26.622Z,96068.00
2022-11-27T04:32:53.673Z,96067.97
2022-11-27T04:35:20.443Z,96068.31
2022-11-27T04:37:47.323Z,96069.53
2022-11-27T04:40:14.222Z,96072.69
2022-11-27T04:42:41.414Z,96084.66
2022-11-27T04:45:09.292Z,96093.28
2022-11-27T04:47:36.070Z,96092.38
2022-11-27T04:50:03.540Z,96092.13
2022-11-27T04:52:30.211Z,96087.38
2022-11-27T04:55:00.188Z,96093.34
2022-11-27T04:57:28.212Z,96090.44
2022-11-27T04:59:55.168Z,96098.84
2022-11-27T05:02:22.021Z,96095.41
2022-11-27T05:04:48.958Z,96082.00
2022-11-27T05:07:15.658Z,96085.81
2022-11-27T05:09:42.420Z,96085.13
2022-11-27T05:12:09.218Z,96087.69
2022-11-27T05:14:36.010Z,96083.69
2022-11-27T05:17:02.781Z,96095.81
2022-11-27T05:19:30.659Z,96094.59
2022-11-27T05:21:57.688Z,96095.06
2022-11-27T05:24:26.693Z,96094.81
2022-11-27T05:26:54.031Z,96094.66
2022-11-27T05:29:21.493Z,96102.63
2022-11-27T05:31:48.472Z,96100.47
2022-11-27T05:34:15.602Z,96103.91
2022-11-27T05:36:42.580Z,96099.47
2022-11-27T05:39:10.973Z,96122.28
2022-11-27T05:41:39.138Z,96101.84
2022-11-27T05:44:06.401Z,96108.50
2022-11-27T05:46:33.238Z,96111.19
2022-11-27T05:49:00.331Z,96113.44
2022-11-27T05:51:27.132Z,96121.31
2022-11-27T05:53:54.083Z,96109.34
2022-11-27T05:56:20.970Z,96114.53
2022-11-27T05:58:48.277Z,96110.28
2022-11-27T06:01:17.017Z,96106.56
2022-11-27T06:03:44.283Z,96110.84
2022-11-27T06:06:19.502Z,96119.75
2022-11-27T06:08:47.320Z,96123.69
2022-11-27T06:11:20.224Z,96131.88
2022-11-27T06:13:48.637Z,96122.09
2022-11-27T06:16:18.506Z,96117.69
2022-11-27T06:18:46.045Z,96125.84
2022-11-27T06:21:14.798Z,96129.56
2022-11-27T06:23:42.814Z,96131.88
2022-11-27T06:26:13.870Z,96141.91
2022-11-27T06:28:41.153Z,96133.09
2022-11-27T06:31:18.213Z,96122.03
2022-11-27T06:33:46.180Z,96124.06
2022-11-27T06:36:13.568Z,96122.97
2022-11-27T06:38:40.541Z,96126.31
2022-11-27T06:41:18.991Z,96133.25
2022-11-27T06:43:46.164Z,96118.44
2022-11-27T06:46:18.084Z,96134.91
2022-11-27T06:48:46.946Z,96134.53
2022-11-27T06:51:17.346Z,96133.69
2022-11-27T06:53:44.594Z,96136.59
2022-11-27T06:56:29.540Z,96129.91
2022-11-27T06:59:01.177Z,96131.63
2022-11-27T07:01:31.298Z,96132.72
2022-11-27T07:03:58.706Z,96131.28
2022-11-27T07:06:26.851Z,96131.16
2022-11-27T07:08:54.809Z,96133.78
2022-11-27T07:11:24.935Z,96126.09
2022-11-27T07:13:52.313Z,96122.91
2022-11-27T07:16:19.214Z,96127.09
2022-11-27T07:18:48.809Z,96119.22
2022-11-27T07:21:16.231Z,96113.59
2022-11-27T07:23:43.161Z,96119.47
2022-11-27T07:26:15.809Z,96108.94
2022-11-27T07:28:43.931Z,96121.44
2022-11-27T07:31:15.991Z,96121.50
2022-11-27T07:33:42.919Z,96114.09
2022-11-27T07:36:21.820Z,96124.38
2022-11-27T07:38:48.951Z,96111.78
2022-11-27T07:41:16.464Z,96113.91
2022-11-27T07:43:44.582Z,96115.34
2022-11-27T07:46:20.599Z,96123.75
2022-11-27T07:48:47.834Z,96113.16
2022-11-27T07:51:17.405Z,96128.13
2022-11-27T07:53:44.693Z,96119.13
2022-11-27T07:56:13.918Z,96119.41
2022-11-27T07:58:41.073Z,96094.47
2022-11-27T08:01:09.844Z,96112.56
2022-11-27T08:03:37.052Z,96100.78
2022-11-27T08:06:04.926Z,96102.75
2022-11-27T08:08:32.461Z,96111.97
2022-11-27T08:10:59.217Z,96109.38
2022-11-27T08:13:25.932Z,96115.75
2022-11-27T08:15:52.929Z,96108.75
2022-11-27T08:18:19.633Z,96109.09
2022-11-27T08:20:46.478Z,96108.19
2022-11-27T08:23:13.221Z,96113.78
2022-11-27T08:25:40.200Z,96116.41
2022-11-27T08:28:06.865Z,96106.78
2022-11-27T08:30:34.093Z,96111.22
2022-11-27T08:33:00.959Z,96103.22
2022-11-27T08:35:27.799Z,96107.75
2022-11-27T08:37:54.720Z,96112.00
2022-11-27T08:40:21.595Z,96097.59
2022-11-27T08:42:48.360Z,96098.78
2022-11-27T08:45:15.360Z,96095.59
2022-11-27T08:47:43.442Z,96092.00
2022-11-27T08:50:10.718Z,96095.19
2022-11-27T08:52:37.627Z,96092.81
2022-11-27T08:55:04.912Z,96095.81
2022-11-27T08:57:31.729Z,96090.38
2022-11-27T08:59:58.564Z,96084.38
2022-11-27T09:02:25.279Z,96083.56
2022-11-27T09:04:52.143Z,96081.00
2022-11-27T09:07:19.055Z,96080.16
2022-11-27T09:09:45.917Z,96082.59
2022-11-27T09:12:12.851Z,96074.19
2022-11-27T09:14:40.136Z,96074.78
2022-11-27T09:17:07.235Z,96076.75
2022-11-27T09:19:33.962Z,96080.78
2022-11-27T09:22:00.869Z,96077.16
2022-11-27T09:24:27.590Z,96069.47
2022-11-27T09:26:54.538Z,96067.09
2022-11-27T09:29:21.461Z,96068.28
2022-11-27T09:31:48.337Z,96065.69
2022-11-27T09:34:15.327Z,96054.16
2022-11-27T09:36:42.073Z,96051.78
2022-11-27T09:39:08.941Z,96054.94
2022-11-27T09:41:58.642Z,96056.50
2022-11-27T09:44:31.034Z,96052.91
2022-11-27T09:47:41.181Z,96043.06
2022-11-27T09:50:18.497Z,96042.75
2022-11-27T09:52:54.014Z,96042.56
2022-11-27T09:55:48.734Z,96038.09
2022-11-27T09:58:20.273Z,96026.41
2022-11-27T10:00:47.953Z,96037.84
2022-11-27T10:03:25.648Z,96015.81
2022-11-27T10:06:26.578Z,96023.03
2022-11-27T10:09:28.084Z,96011.09
2022-11-27T10:12:03.305Z,96013.34
2022-11-27T10:15:04.861Z,96007.19
2022-11-27T10:17:52.229Z,96004.50
2022-11-27T10:20:32.332Z,96005.03
2022-11-27T10:23:14.000Z,95999.28
2022-11-27T10:25:58.515Z,95996.28
2022-11-27T10:28:46.153Z,95986.94
2022-11-27T10:31:19.989Z,95980.75
2022-11-27T10:33:53.771Z,95976.59
2022-11-27T10:36:44.931Z,95977.38
2022-11-27T10:39:36.938Z,95967.09
2022-11-27T10:42:10.740Z,95965.56
2022-11-27T10:44:52.228Z,95957.91
2022-11-27T10:47:23.181Z,95967.91
2022-11-27T10:49:50.141Z,95965.44
2022-11-27T10:52:19.918Z,95962.97
2022-11-27T10:54:56.707Z,95957.47
2022-11-27T10:57:46.807Z,95948.22
2022-11-27T11:00:19.173Z,95951.22
2022-11-27T11:02:46.205Z,95940.16
2022-11-27T11:08:20.487Z,95943.41
2022-11-27T11:10:59.430Z,95946.44
2022-11-27T11:13:31.537Z,95943.22
2022-11-27T11:16:00.449Z,95941.56
2022-11-27T11:18:30.788Z,95937.78
2022-11-27T11:21:00.489Z,95927.63
2022-11-27T11:23:33.857Z,95915.41
2022-11-27T11:26:05.465Z,95915.50
2022-11-27T11:28:39.386Z,95916.38
2022-11-27T11:31:09.954Z,95921.13
2022-11-27T11:33:48.226Z,95918.63
2022-11-27T11:36:15.491Z,95909.63
2022-11-27T11:38:46.838Z,95914.03
2022-11-27T11:41:18.131Z,95913.31
2022-11-27T11:44:01.978Z,95902.38
2022-11-27T11:46:33.721Z,95900.25
2022-11-27T11:49:07.461Z,95899.53
2022-11-27T11:51:37.328Z,95898.66
2022-11-27T11:54:26.667Z,95902.09
2022-11-27T11:57:00.183Z,95899.09
2022-11-27T11:59:45.537Z,95897.28
2022-11-27T12:02:26.260Z,95893.00
2022-11-27T12:05:27.171Z,95888.50
2022-11-27T12:08:21.697Z,95888.78
2022-11-27T12:11:00.115Z,95889.09
2022-11-27T12:14:01.018Z,95882.66
2022-11-27T12:17:10.315Z,95877.59
2022-11-27T12:19:55.221Z,95877.03
2022-11-27T12:23:00.516Z,95872.75
2022-11-27T12:25:37.727Z,95875.00
2022-11-27T12:28:53.179Z,95865.31
2022-11-27T12:31:58.543Z,95868.78
2022-11-27T12:34:56.609Z,95866.63
2022-11-27T12:37:49.535Z,95862.03
2022-11-27T12:40:40.877Z,95857.69
2022-11-27T12:43:26.745Z,95853.81
2022-11-27T12:46:18.900Z,95856.41
2022-11-27T12:48:56.895Z,95850.53
2022-11-27T12:51:32.194Z,95859.31
2022-11-27T12:54:17.900Z,95861.06
2022-11-27T12:56:52.521Z,95853.22
2022-11-27T12:59:38.981Z,95849.63
2022-11-27T13:02:13.662Z,95853.78
2022-11-27T13:04:48.271Z,95844.22
2022-11-27T13:07:26.913Z,95849.63
2022-11-27T13:09:56.709Z,95856.47
2022-11-27T13:12:33.950Z,95848.66
2022-11-27T13:15:06.783Z,95849.91
2022-11-27T13:17:42.435Z,95846.72
2022-11-27T13:20:18.105Z,95851.88
2022-11-27T13:22:46.833Z,95843.56
2022-11-27T13:25:14.857Z,95844.69
2022-11-27T13:27:46.590Z,95847.66
2022-11-27T13:30:34.822Z,95820.13
2022-11-27T13:33:06.304Z,95840.38
2022-11-27T13:35:36.573Z,95837.19
2022-11-27T13:38:14.371Z,95842.19
2022-11-27T13:40:45.172Z,95835.63
2022-11-27T13:43:42.722Z,95831.44
2022-11-27T13:46:18.429Z,95834.34
2022-11-27T13:49:05.922Z,95832.75
2022-11-27T13:51:35.363Z,95835.63
2022-11-27T13:54:12.076Z,95818.91
2022-11-27T13:56:40.214Z,95837.91
2022-11-27T13:59:36.457Z,95838.66
2022-11-27T14:02:08.089Z,95825.41
2022-11-27T14:04:35.810Z,95827.44
2022-11-27T14:07:13.651Z,95838.47
2022-11-27T14:09:45.873Z,95842.47
2022-11-27T14:12:33.183Z,95840.63
2022-11-27T14:15:08.954Z,95836.66
2022-11-27T14:17:44.658Z,95838.81
2022-11-27T14:20:17.502Z,95838.91
2022-11-27T14:23:11.758Z,95842.22
2022-11-27T14:25:39.025Z,95845.38
2022-11-27T14:28:26.293Z,95845.53
2022-11-27T14:31:01.110Z,95841.03
2022-11-27T14:33:47.329Z,95838.34
2022-11-27T14:36:26.444Z,95839.47
2022-11-27T14:38:53.393Z,95838.19
2022-11-27T14:41:22.773Z,95848.91
2022-11-27T14:44:19.464Z,95837.94
2022-11-27T14:46:46.502Z,95841.72
2022-11-27T14:49:19.323Z,95837.53
2022-11-27T14:51:46.613Z,95841.03
2022-11-27T14:54:34.519Z,95838.34
2022-11-27T14:57:02.532Z,95840.56
2022-11-27T14:59:29.294Z,95837.06
2022-11-27T15:02:16.067Z,95835.56
2022-11-27T15:04:44.304Z,95830.63
2022-11-27T15:07:20.359Z,95833.28
2022-11-27T15:09:50.419Z,95836.78
2022-11-27T15:12:23.091Z,95836.16
2022-11-27T15:14:56.102Z,95836.78
2022-11-27T15:17:36.659Z,95833.94
2022-11-27T15:20:13.838Z,95838.94
2022-11-27T15:22:49.120Z,95841.78
2022-11-27T15:25:38.827Z,95836.34
2022-11-27T15:28:47.229Z,95843.31
2022-11-27T15:31:25.822Z,95837.66
2022-11-27T15:34:15.612Z,95843.00
2022-11-27T15:36:47.725Z,95837.38
2022-11-27T15:39:19.898Z,95839.34
2022-11-27T15:41:51.707Z,95835.25
2022-11-27T15:44:18.728Z,95842.66
2022-11-27T15:46:46.074Z,95838.88
2022-11-27T15:49:14.766Z,95842.22
2022-11-27T15:51:42.525Z,95835.41
2022-11-27T15:54:09.925Z,95837.56
2022-11-27T15:56:36.589Z,95841.03
2022-11-27T15:59:04.024Z,95835.28
2022-11-27T16:01:30.845Z,95835.28
2022-11-27T16:03:58.353Z,95834.22
2022-11-27T16:06:25.674Z,95833.88
2022-11-27T16:09:00.134Z,95838.44
2022-11-27T16:11:29.992Z,95827.13
2022-11-27T16:13:57.033Z,95834.38
2022-11-27T16:16:24.369Z,95833.72
2022-11-27T16:18:51.483Z,95836.78
2022-11-27T16:21:18.833Z,95829.88
2022-11-27T16:23:45.656Z,95842.31
2022-11-27T16:26:14.464Z,95845.28
2022-11-27T16:28:42.414Z,95841.00
2022-11-27T16:31:12.038Z,95830.91
2022-11-27T16:33:38.975Z,95821.19
2022-11-27T16:36:08.120Z,95829.69
2022-11-27T16:38:35.841Z,95831.47
2022-11-27T16:41:06.253Z,95842.56
2022-11-27T16:43:38.629Z,95836.00
2022-11-27T16:46:11.109Z,95837.56
2022-11-27T16:48:39.715Z,95833.66
2022-11-27T16:51:13.158Z,95828.59
2022-11-27T16:53:42.453Z,95831.94
2022-11-27T16:56:11.258Z,95833.72
2022-11-27T16:58:40.881Z,95840.03
2022-11-27T17:01:12.672Z,95829.75
2022-11-27T17:03:40.095Z,95835.97
2022-11-27T17:06:19.110Z,95830.63
2022-11-27T17:08:46.601Z,95834.38
2022-11-27T17:11:15.190Z,95828.59
2022-11-27T17:13:42.093Z,95841.25
2022-11-27T17:16:09.352Z,95837.41
2022-11-27T17:18:38.293Z,95833.38
2022-11-27T17:21:18.213Z,95841.03
2022-11-27T17:23:46.997Z,95836.84
2022-11-27T17:26:16.979Z,95830.63
2022-11-27T17:28:44.706Z,95825.97
2022-11-27T17:31:37.038Z,95822.78
2022-11-27T17:34:05.889Z,95829.00
2022-11-27T17:36:37.122Z,95821.06
2022-11-27T17:39:06.240Z,95822.13
2022-11-27T17:41:34.094Z,95817.88
2022-11-27T17:44:04.378Z,95836.56
2022-11-27T17:46:32.483Z,95827.34
2022-11-27T17:49:01.305Z,95835.78
2022-11-27T17:51:30.769Z,95820.69
2022-11-27T17:54:02.697Z,95823.66
2022-11-27T17:56:32.684Z,95821.88
2022-11-27T17:58:59.964Z,95816.44
2022-11-27T18:01:29.485Z,95817.53
2022-11-27T18:04:00.486Z,95821.41
2022-11-27T18:06:30.410Z,95821.34
2022-11-27T18:08:58.557Z,95813.28
2022-11-27T18:11:28.221Z,95810.97
2022-11-27T18:13:58.380Z,95813.19
2022-11-27T18:16:29.451Z,95812.75
2022-11-27T18:18:58.148Z,95813.91
2022-11-27T18:21:28.917Z,95809.28
2022-11-27T18:29:30.405Z,95812.75
2022-11-27T18:31:57.347Z,95817.97
2022-11-27T18:34:24.348Z,95803.97
2022-11-27T18:36:51.114Z,95813.59
2022-11-27T18:39:18.856Z,95813.25
2022-11-27T18:41:45.611Z,95811.00
2022-11-27T18:44:12.657Z,95803.38
2022-11-27T18:46:39.633Z,95807.66
2022-11-27T18:49:07.554Z,95790.72
2022-11-27T18:51:35.060Z,95807.66
2022-11-27T18:54:02.139Z,95810.41
2022-11-27T18:56:31.091Z,95812.03
2022-11-27T18:59:04.105Z,95808.16
2022-11-27T19:01:40.848Z,95807.38
2022-11-27T19:04:08.395Z,95801.50
2022-11-27T19:06:35.955Z,95810.78
2022-11-27T19:09:03.591Z,95805.00
2022-11-27T19:11:31.156Z,95804.94
2022-11-27T19:13:59.282Z,95806.47
2022-11-27T19:16:34.370Z,95805.06
2022-11-27T19:19:03.081Z,95805.03
2022-11-27T19:21:32.846Z,95819.72
2022-11-27T19:24:03.869Z,95806.94
2022-11-27T19:26:33.313Z,95806.66
2022-11-27T19:29:03.597Z,95804.19
2022-11-27T19:31:33.251Z,95810.34
2022-11-27T19:34:02.346Z,95803.59
2022-11-27T19:36:31.000Z,95805.19
2022-11-27T19:39:04.581Z,95809.28
2022-11-27T19:41:31.629Z,95802.31
2022-11-27T19:44:03.636Z,95812.97
2022-11-27T19:46:33.893Z,95800.28
2022-11-27T19:49:05.864Z,95809.97
2022-11-27T19:51:35.174Z,95806.34
2022-11-27T19:54:08.375Z,95811.03
2022-11-27T19:56:40.063Z,95815.97
2022-11-27T19:59:08.493Z,95810.53
2022-11-27T20:01:37.681Z,95797.94
2022-11-27T20:04:05.632Z,95811.63
2022-11-27T20:06:32.599Z,95818.81
2022-11-27T20:09:02.043Z,95814.84
2022-11-27T20:11:34.266Z,95811.78
2022-11-27T20:14:04.926Z,95815.16
2022-11-27T20:16:34.141Z,95814.34
2022-11-27T20:19:05.428Z,95819.22
2022-11-27T20:21:34.597Z,95817.38
2022-11-27T20:24:02.996Z,95807.44
2022-11-27T20:26:30.738Z,95811.00
2022-11-27T20:28:59.336Z,95810.22
2022-11-27T20:31:32.139Z,95803.63
2022-11-27T20:34:01.740Z,95805.53
2022-11-27T20:36:30.575Z,95805.78
2022-11-27T20:38:59.453Z,95812.97
2022-11-27T20:41:27.262Z,95813.59
2022-11-27T20:44:00.489Z,95801.09
2022-11-27T20:46:29.297Z,95795.19
2022-11-27T20:48:56.672Z,95797.75
2022-11-27T20:51:30.936Z,95787.50
2022-11-27T20:54:00.294Z,95799.31
2022-11-27T20:56:29.042Z,95783.59
2022-11-27T20:58:57.333Z,95789.84
2022-11-27T21:01:26.315Z,95790.50
2022-11-27T21:03:55.685Z,95797.41
2022-11-27T21:06:26.586Z,95795.41
2022-11-27T21:08:55.828Z,95805.44
2022-11-27T21:11:28.409Z,95792.69
2022-11-27T21:13:59.923Z,95790.19
2022-11-27T21:16:30.278Z,95781.53
2022-11-27T21:18:59.831Z,95787.56
2022-11-27T21:21:26.968Z,95782.47
2022-11-27T21:23:54.352Z,95787.81
2022-11-27T21:26:21.690Z,95792.09
2022-11-27T21:28:50.273Z,95782.72
2022-11-27T21:31:22.803Z,95776.34
2022-11-27T21:33:55.713Z,95776.47
2022-11-27T21:36:26.916Z,95787.09
2022-11-27T21:38:54.303Z,95782.97
2022-11-27T21:41:21.087Z,95780.25
2022-11-27T21:43:49.269Z,95775.34
2022-11-27T21:46:19.380Z,95773.09
2022-11-27T21:48:47.767Z,95771.47
2022-11-27T21:51:15.729Z,95774.75
2022-11-27T21:53:44.195Z,95774.44
2022-11-27T21:56:14.765Z,95764.66
2022-11-27T21:58:43.428Z,95768.59
2022-11-27T22:01:14.602Z,95768.22
2022-11-27T22:03:42.953Z,95763.44
2022-11-27T22:06:14.694Z,95763.75
2022-11-27T22:08:44.602Z,95761.56
2022-11-27T22:11:18.275Z,95762.94
2022-11-27T22:13:45.752Z,95761.63
2022-11-27T22:16:21.937Z,95760.25
2022-11-27T22:18:49.602Z,95756.75
2022-11-27T22:21:17.156Z,95749.38
2022-11-27T22:23:44.703Z,95759.28
2022-11-27T22:26:16.479Z,95748.50
2022-11-27T22:28:43.720Z,95743.00
2022-11-27T22:31:13.595Z,95742.88
2022-11-27T22:33:42.072Z,95745.75
2022-11-27T22:36:18.072Z,95738.03
2022-11-27T22:38:49.322Z,95729.75
2022-11-27T22:41:17.915Z,95743.28
2022-11-27T22:43:46.371Z,95734.31
2022-11-27T22:46:23.028Z,95739.38
2022-11-27T22:48:58.416Z,95731.91
2022-11-27T22:51:27.065Z,95733.13
2022-11-27T22:53:53.981Z,95731.41
2022-11-27T22:56:21.149Z,95729.09
2022-11-27T22:58:48.533Z,95727.72
2022-11-27T23:01:18.894Z,95722.34
2022-11-27T23:03:45.926Z,95721.78
2022-11-27T23:06:17.609Z,95728.84
2022-11-27T23:08:46.089Z,95734.09
2022-11-27T23:11:21.921Z,95728.16
2022-11-27T23:13:50.114Z,95726.28
2022-11-27T23:16:17.731Z,95726.88
2022-11-27T23:18:44.597Z,95718.84
2022-11-27T23:21:17.472Z,95721.91
2022-11-27T23:23:45.234Z,95720.03
2022-11-27T23:26:18.627Z,95724.13
2022-11-27T23:28:46.996Z,95721.22
2022-11-27T23:31:33.187Z,95717.03
2022-11-27T23:34:02.159Z,95717.06
2022-11-27T23:36:30.258Z,95716.81
2022-11-27T23:38:59.724Z,95703.28
2022-11-27T23:41:27.122Z,95719.19
2022-11-27T23:43:54.056Z,95721.13
2022-11-27T23:46:25.211Z,95719.88
2022-11-27T23:48:54.717Z,95710.72
2022-11-27T23:51:27.542Z,95712.66
2022-11-27T23:53:54.597Z,95716.56
2022-11-27T23:56:24.015Z,95709.75
2022-11-27T23:58:50.934Z,95719.81
